createdAt,value
2022-09-28T00:01:57.916Z,99616.47
2022-09-28T00:04:24.393Z,99605.59
2022-09-28T00:06:50.769Z,99604.00
2022-09-28T00:09:17.770Z,99611.84
2022-09-28T00:11:45.997Z,99600.50
2022-09-28T00:14:12.846Z,99619.16
2022-09-28T00:16:43.454Z,99608.72
2022-09-28T00:19:10.961Z,99610.94
2022-09-28T00:21:43.056Z,99603.28
2022-09-28T00:24:17.293Z,99608.63
2022-09-28T00:26:54.643Z,99602.03
2022-09-28T00:29:32.278Z,99607.53
2022-09-28T00:32:21.511Z,99613.53
2022-09-28T00:34:48.882Z,99602.47
2022-09-28T00:37:15.309Z,99607.91
2022-09-28T00:39:41.766Z,99605.50
2022-09-28T00:42:21.834Z,99599.53
2022-09-28T00:44:56.102Z,99593.19
2022-09-28T00:47:37.885Z,99605.53
2022-09-28T00:50:09.272Z,99607.78
2022-09-28T00:53:00.565Z,99590.78
2022-09-28T00:55:33.667Z,99602.34
2022-09-28T00:58:01.804Z,99594.88
2022-09-28T01:00:28.409Z,99593.81
2022-09-28T01:02:54.875Z,99578.84
2022-09-28T01:05:22.377Z,99591.53
2022-09-28T01:07:48.768Z,99583.59
2022-09-28T01:10:15.331Z,99582.16
2022-09-28T01:12:41.677Z,99580.56
2022-09-28T01:15:08.362Z,99574.25
2022-09-28T01:17:37.521Z,99575.88
2022-09-28T01:20:22.465Z,99579.56
2022-09-28T01:23:19.038Z,99587.56
2022-09-28T01:25:55.818Z,99562.72
2022-09-28T01:28:26.297Z,99581.41
2022-09-28T01:31:05.475Z,99575.34
2022-09-28T01:33:38.251Z,99566.22
2022-09-28T01:36:27.715Z,99571.06
2022-09-28T01:39:03.332Z,99574.88
2022-09-28T01:41:31.525Z,99576.84
2022-09-28T01:44:02.808Z,99588.94
2022-09-28T01:46:34.446Z,99590.25
2022-09-28T01:49:16.474Z,99579.31
2022-09-28T01:52:06.811Z,99591.38
2022-09-28T01:54:44.352Z,99563.38
2022-09-28T01:57:16.761Z,99579.94
2022-09-28T01:59:49.564Z,99569.16
2022-09-28T02:02:18.821Z,99570.28
2022-09-28T02:04:52.308Z,99562.63
2022-09-28T02:07:32.141Z,99547.03
2022-09-28T02:10:02.888Z,99574.09
2022-09-28T02:12:43.534Z,99574.16
2022-09-28T02:15:20.662Z,99575.06
2022-09-28T02:17:47.471Z,99567.59
2022-09-28T02:20:14.020Z,99575.25
2022-09-28T02:22:51.327Z,99578.63
2022-09-28T02:25:39.188Z,99584.75
2022-09-28T02:28:07.284Z,99579.94
2022-09-28T02:30:36.419Z,99573.97
2022-09-28T02:33:11.077Z,99565.84
2022-09-28T02:35:40.357Z,99574.66
2022-09-28T02:38:06.913Z,99568.53
2022-09-28T02:40:34.859Z,99583.66
2022-09-28T02:43:23.799Z,99588.81
2022-09-28T02:46:34.392Z,99576.03
2022-09-28T02:49:22.154Z,99573.97
2022-09-28T02:52:04.289Z,99582.16
2022-09-28T02:54:58.173Z,99587.97
2022-09-28T02:58:01.534Z,99591.31
2022-09-28T03:00:32.845Z,99592.59
2022-09-28T03:03:08.103Z,99597.47
2022-09-28T03:05:45.968Z,99591.84
2022-09-28T03:08:30.428Z,99590.41
2022-09-28T03:11:10.275Z,99593.59
2022-09-28T03:13:37.073Z,99587.03
2022-09-28T03:16:15.277Z,99588.91
2022-09-28T03:18:41.690Z,99596.47
2022-09-28T03:21:09.570Z,99601.66
2022-09-28T03:23:36.006Z,99593.91
2022-09-28T03:26:03.755Z,99608.59
2022-09-28T03:28:30.298Z,99606.94
2022-09-28T03:30:56.878Z,99603.56
2022-09-28T03:33:23.340Z,99601.88
2022-09-28T03:35:50.576Z,99590.59
2022-09-28T03:38:20.661Z,99609.06
2022-09-28T03:41:02.869Z,99604.25
2022-09-28T03:43:31.123Z,99606.13
2022-09-28T03:45:59.797Z,99600.16
2022-09-28T03:48:36.116Z,99588.44
2022-09-28T03:51:04.155Z,99597.00
2022-09-28T03:53:30.608Z,99585.84
2022-09-28T03:56:05.584Z,99594.84
2022-09-28T03:58:33.260Z,99589.53
2022-09-28T04:01:05.049Z,99581.19
2022-09-28T04:03:31.724Z,99590.03
2022-09-28T04:05:58.367Z,99595.00
2022-09-28T04:08:25.183Z,99596.97
2022-09-28T04:10:51.660Z,99603.72
2022-09-28T04:13:21.033Z,99601.03
2022-09-28T04:15:53.272Z,99592.16
2022-09-28T04:18:23.602Z,99599.72
2022-09-28T04:21:06.490Z,99592.59
2022-09-28T04:23:34.572Z,99601.59
2022-09-28T04:26:01.460Z,99602.69
2022-09-28T04:28:46.906Z,99597.88
2022-09-28T04:31:17.064Z,99600.81
2022-09-28T04:33:43.699Z,99607.50
2022-09-28T04:36:10.973Z,99597.25
2022-09-28T04:38:55.246Z,99607.84
2022-09-28T04:41:22.504Z,99609.47
2022-09-28T04:43:49.609Z,99605.91
2022-09-28T04:46:16.430Z,99607.50
2022-09-28T04:48:45.645Z,99601.25
2022-09-28T04:51:12.036Z,99601.53
2022-09-28T04:53:38.474Z,99588.09
2022-09-28T04:56:07.489Z,99590.69
2022-09-28T04:58:37.495Z,99602.47
2022-09-28T05:01:08.326Z,99610.41
2022-09-28T05:03:34.791Z,99604.25
2022-09-28T05:06:01.529Z,99609.56
2022-09-28T05:08:27.918Z,99609.56
2022-09-28T05:11:01.979Z,99609.22
2022-09-28T05:13:28.904Z,99615.38
2022-09-28T05:15:59.694Z,99618.91
2022-09-28T05:18:28.217Z,99611.88
2022-09-28T05:20:54.645Z,99622.66
2022-09-28T05:23:21.004Z,99603.84
2022-09-28T05:25:47.388Z,99614.63
2022-09-28T05:28:13.907Z,99605.34
2022-09-28T05:30:42.916Z,99605.16
2022-09-28T05:33:09.570Z,99624.31
2022-09-28T05:35:39.446Z,99608.41
2022-09-28T05:38:05.817Z,99623.69
2022-09-28T05:40:32.509Z,99628.47
2022-09-28T05:43:01.136Z,99632.56
2022-09-28T05:45:29.003Z,99622.06
2022-09-28T05:47:56.608Z,99624.66
2022-09-28T05:50:23.387Z,99623.69
2022-09-28T05:53:03.801Z,99631.13
2022-09-28T05:55:30.541Z,99630.72
2022-09-28T05:58:06.154Z,99625.28
2022-09-28T06:00:33.443Z,99623.50
2022-09-28T06:03:05.395Z,99618.44
2022-09-28T06:05:36.093Z,99630.09
2022-09-28T06:08:05.061Z,99614.00
2022-09-28T06:10:32.219Z,99630.91
2022-09-28T06:12:59.383Z,99628.31
2022-09-28T06:15:27.976Z,99618.00
2022-09-28T06:18:02.102Z,99622.94
2022-09-28T06:20:31.040Z,99621.66
2022-09-28T06:22:57.458Z,99616.44
2022-09-28T06:25:27.440Z,99624.81
2022-09-28T06:27:57.451Z,99639.91
2022-09-28T06:30:27.001Z,99637.03
2022-09-28T06:32:55.040Z,99632.16
2022-09-28T06:35:22.239Z,99639.97
2022-09-28T06:37:48.773Z,99628.47
2022-09-28T06:40:15.341Z,99637.31
2022-09-28T06:42:41.821Z,99645.69
2022-09-28T06:45:08.544Z,99638.50
2022-09-28T06:47:35.169Z,99634.50
2022-09-28T06:50:01.557Z,99639.56
2022-09-28T06:52:27.913Z,99644.22
2022-09-28T06:54:54.269Z,99649.69
2022-09-28T06:57:20.697Z,99650.94
2022-09-28T06:59:47.061Z,99650.38
2022-09-28T07:02:16.410Z,99653.41
2022-09-28T07:04:43.259Z,99660.81
2022-09-28T07:07:11.396Z,99662.34
2022-09-28T07:09:42.234Z,99665.97
2022-09-28T07:12:13.314Z,99655.19
2022-09-28T07:14:47.711Z,99676.59
2022-09-28T07:17:15.082Z,99676.31
2022-09-28T07:19:41.897Z,99678.78
2022-09-28T07:22:08.266Z,99680.94
2022-09-28T07:24:34.630Z,99675.50
2022-09-28T07:27:04.424Z,99681.66
2022-09-28T07:29:30.799Z,99692.75
2022-09-28T07:31:57.162Z,99682.94
2022-09-28T07:34:23.934Z,99689.28
2022-09-28T07:36:51.907Z,99690.41
2022-09-28T07:39:18.260Z,99684.47
2022-09-28T07:41:44.658Z,99688.38
2022-09-28T07:44:11.203Z,99700.53
2022-09-28T07:46:38.037Z,99697.97
2022-09-28T07:49:10.014Z,99687.06
2022-09-28T07:51:38.899Z,99695.38
2022-09-28T07:54:06.484Z,99696.47
2022-09-28T07:56:34.834Z,99696.94
2022-09-28T07:59:01.265Z,99699.78
2022-09-28T08:01:27.980Z,99702.19
2022-09-28T08:03:56.117Z,99702.25
2022-09-28T08:06:23.193Z,99696.94
2022-09-28T08:08:50.285Z,99698.00
2022-09-28T08:11:20.490Z,99698.28
2022-09-28T08:13:48.133Z,99711.50
2022-09-28T08:16:14.706Z,99715.72
2022-09-28T08:18:41.150Z,99719.91
2022-09-28T08:21:26.112Z,99705.56
2022-09-28T08:23:53.063Z,99721.19
2022-09-28T08:26:29.072Z,99722.00
2022-09-28T08:29:20.735Z,99726.41
2022-09-28T08:32:01.538Z,99702.81
2022-09-28T08:34:28.872Z,99724.25
2022-09-28T08:36:59.075Z,99727.47
2022-09-28T08:39:25.727Z,99727.84
2022-09-28T08:42:17.281Z,99726.00
2022-09-28T08:44:47.081Z,99734.22
2022-09-28T08:47:35.052Z,99725.84
2022-09-28T08:50:03.538Z,99733.19
2022-09-28T08:52:40.093Z,99740.34
2022-09-28T08:55:31.619Z,99735.16
2022-09-28T08:58:02.897Z,99739.75
2022-09-28T09:00:38.087Z,99746.91
2022-09-28T09:03:11.510Z,99750.50
2022-09-28T09:06:06.604Z,99752.44
2022-09-28T09:08:57.434Z,99751.41
2022-09-28T09:11:34.154Z,99755.19
2022-09-28T09:14:38.578Z,99756.06
2022-09-28T09:17:32.232Z,99759.47
2022-09-28T09:20:16.866Z,99755.84
2022-09-28T09:23:20.806Z,99774.75
2022-09-28T09:25:48.689Z,99770.00
2022-09-28T09:28:43.538Z,99775.63
2022-09-28T09:31:22.901Z,99765.03
2022-09-28T09:34:15.651Z,99767.81
2022-09-28T09:37:03.380Z,99761.31
2022-09-28T09:39:45.487Z,99773.63
2022-09-28T09:42:22.046Z,99764.75
2022-09-28T09:45:00.626Z,99775.91
2022-09-28T09:47:42.882Z,99773.13
2022-09-28T09:50:16.290Z,99770.28
2022-09-28T09:52:57.075Z,99771.88
2022-09-28T09:55:44.223Z,99770.81
2022-09-28T09:58:38.905Z,99776.75
2022-09-28T10:01:13.232Z,99772.91
2022-09-28T10:03:44.512Z,99771.59
2022-09-28T10:06:27.445Z,99764.72
2022-09-28T10:09:12.442Z,99774.00
2022-09-28T10:11:49.809Z,99763.38
2022-09-28T10:14:17.458Z,99759.53
2022-09-28T10:16:44.892Z,99761.75
2022-09-28T10:19:13.162Z,99762.50
2022-09-28T10:21:41.170Z,99765.28
2022-09-28T10:24:15.146Z,99764.13
2022-09-28T10:26:44.364Z,99764.13
2022-09-28T10:29:56.653Z,99764.97
2022-09-28T10:32:28.001Z,99770.84
2022-09-28T10:35:12.432Z,99772.94
2022-09-28T10:38:06.187Z,99776.81
2022-09-28T10:40:56.122Z,99779.28
2022-09-28T10:43:35.668Z,99780.00
2022-09-28T10:46:06.029Z,99776.97
2022-09-28T10:48:49.881Z,99772.94
2022-09-28T10:51:16.300Z,99772.78
2022-09-28T10:53:42.788Z,99774.59
2022-09-28T10:56:20.957Z,99763.13
2022-09-28T10:58:47.390Z,99766.78
2022-09-28T11:01:19.605Z,99770.00
2022-09-28T11:03:55.145Z,99766.44
2022-09-28T11:06:41.727Z,99772.66
2022-09-28T11:09:29.691Z,99770.34
2022-09-28T11:11:58.273Z,99764.13
2022-09-28T11:14:39.613Z,99779.88
2022-09-28T11:17:40.391Z,99777.50
2022-09-28T11:20:27.937Z,99780.38
2022-09-28T11:22:54.693Z,99772.59
2022-09-28T11:25:26.912Z,99776.56
2022-09-28T11:27:53.186Z,99769.66
2022-09-28T11:30:23.949Z,99768.41
2022-09-28T11:32:50.880Z,99768.22
2022-09-28T11:35:24.911Z,99768.09
2022-09-28T11:38:07.304Z,99767.38
2022-09-28T11:41:23.233Z,99774.94
2022-09-28T11:43:55.595Z,99770.31
2022-09-28T11:46:37.206Z,99769.03
2022-09-28T11:49:11.387Z,99772.84
2022-09-28T11:51:40.317Z,99783.91
2022-09-28T11:54:18.648Z,99789.84
2022-09-28T11:56:48.027Z,99796.97
2022-09-28T11:59:31.576Z,99803.19
2022-09-28T12:02:02.105Z,99811.34
2022-09-28T12:04:33.225Z,99813.84
2022-09-28T12:07:11.286Z,99809.75
2022-09-28T12:09:50.542Z,99814.38
2022-09-28T12:12:43.771Z,99815.63
2022-09-28T12:15:17.132Z,99810.81
2022-09-28T12:17:48.457Z,99811.22
2022-09-28T12:20:30.695Z,99804.03
2022-09-28T12:23:00.103Z,99805.25
2022-09-28T12:25:28.676Z,99800.44
2022-09-28T12:28:01.542Z,99801.44
2022-09-28T12:30:33.499Z,99795.84
2022-09-28T12:33:09.185Z,99800.47
2022-09-28T12:36:09.689Z,99790.63
2022-09-28T12:38:54.135Z,99801.47
2022-09-28T12:41:42.372Z,99796.25
2022-09-28T12:44:29.090Z,99788.44
2022-09-28T12:47:05.976Z,99796.25
2022-09-28T12:50:36.303Z,99799.44
2022-09-28T12:52:47.375Z,99795.44
2022-09-28T12:55:22.999Z,99793.41
2022-09-28T12:58:21.568Z,99799.75
2022-09-28T13:01:14.224Z,99795.78
2022-09-28T13:03:49.784Z,99793.88
2022-09-28T13:06:34.875Z,99792.09
2022-09-28T13:09:12.308Z,99777.34
2022-09-28T13:12:03.501Z,99787.00
2022-09-28T13:14:49.015Z,99793.13
2022-09-28T13:17:42.512Z,99787.72
2022-09-28T13:20:23.329Z,99780.06
2022-09-28T13:22:54.679Z,99783.41
2022-09-28T13:25:22.054Z,99781.25
2022-09-28T13:27:53.512Z,99778.88
2022-09-28T13:30:20.104Z,99784.16
2022-09-28T13:32:47.475Z,99779.78
2022-09-28T13:35:15.195Z,99782.03
2022-09-28T13:37:41.651Z,99795.91
2022-09-28T13:40:08.326Z,99796.59
2022-09-28T13:42:53.821Z,99801.84
2022-09-28T13:45:20.120Z,99804.63
2022-09-28T13:48:21.966Z,99806.09
2022-09-28T13:51:09.635Z,99801.00
2022-09-28T13:54:03.762Z,99793.16
2022-09-28T13:56:52.764Z,99801.25
2022-09-28T13:59:27.665Z,99815.47
2022-09-28T14:02:09.407Z,99815.13
2022-09-28T14:04:57.797Z,99816.44
2022-09-28T14:10:16.609Z,99822.97
2022-09-28T14:12:51.791Z,99825.53
2022-09-28T14:15:30.271Z,99830.66
2022-09-28T14:18:24.121Z,99827.16
2022-09-28T14:21:29.497Z,99825.44
2022-09-28T14:24:18.852Z,99827.06
2022-09-28T14:27:03.080Z,99835.06
2022-09-28T14:29:36.139Z,99827.84
2022-09-28T14:32:22.437Z,99832.81
2022-09-28T14:34:59.102Z,99847.97
2022-09-28T14:37:56.363Z,99837.06
2022-09-28T14:40:49.949Z,99851.22
2022-09-28T14:43:24.348Z,99851.59
2022-09-28T14:45:53.442Z,99865.19
2022-09-28T14:48:21.889Z,99872.00
2022-09-28T14:50:49.872Z,99875.06
2022-09-28T14:53:22.049Z,99874.63
2022-09-28T14:55:55.648Z,99869.03
2022-09-28T14:58:25.562Z,99858.03
2022-09-28T15:00:54.713Z,99857.47
2022-09-28T15:03:21.759Z,99859.13
2022-09-28T15:05:49.231Z,99860.50
2022-09-28T15:08:20.198Z,99858.97
2022-09-28T15:10:48.673Z,99854.84
2022-09-28T15:13:21.283Z,99857.19
2022-09-28T15:15:50.764Z,99855.22
2022-09-28T15:18:27.480Z,99860.41
2022-09-28T15:20:54.164Z,99853.97
2022-09-28T15:23:34.423Z,99852.06
2022-09-28T15:26:01.025Z,99859.69
2022-09-28T15:28:27.396Z,99849.50
2022-09-28T15:31:01.787Z,99858.22
2022-09-28T15:33:51.969Z,99860.28
2022-09-28T15:36:21.843Z,99866.44
2022-09-28T15:38:59.044Z,99866.44
2022-09-28T15:41:25.988Z,99862.00
2022-09-28T15:44:08.333Z,99873.09
2022-09-28T15:46:36.555Z,99859.09
2022-09-28T15:49:04.675Z,99868.91
2022-09-28T15:51:32.382Z,99870.47
2022-09-28T15:54:04.106Z,99861.63
2022-09-28T15:56:31.492Z,99869.22
2022-09-28T15:59:13.142Z,99863.91
2022-09-28T16:01:41.118Z,99868.66
2022-09-28T16:04:33.592Z,99876.53
2022-09-28T16:07:20.988Z,99865.28
2022-09-28T16:10:12.811Z,99868.31
2022-09-28T16:12:54.145Z,99863.56
2022-09-28T16:15:26.616Z,99860.69
2022-09-28T16:18:00.533Z,99861.25
2022-09-28T16:20:29.384Z,99860.00
2022-09-28T16:22:57.614Z,99864.53
2022-09-28T16:25:26.013Z,99866.53
2022-09-28T16:27:54.993Z,99869.59
2022-09-28T16:30:29.988Z,99851.81
2022-09-28T16:32:56.426Z,99865.88
2022-09-28T16:35:32.701Z,99867.03
2022-09-28T16:38:16.380Z,99868.41
2022-09-28T16:40:52.561Z,99878.38
2022-09-28T16:43:26.889Z,99879.34
2022-09-28T16:46:02.031Z,99880.78
2022-09-28T16:48:30.637Z,99886.94
2022-09-28T16:50:57.839Z,99884.34
2022-09-28T16:53:43.784Z,99891.91
2022-09-28T16:56:10.765Z,99894.84
2022-09-28T16:58:38.979Z,99889.75
2022-09-28T17:01:09.409Z,99898.94
2022-09-28T17:03:35.994Z,99894.06
2022-09-28T17:06:08.701Z,99897.47
2022-09-28T17:08:35.603Z,99903.06
2022-09-28T17:11:22.853Z,99893.47
2022-09-28T17:13:48.683Z,99904.56
2022-09-28T17:16:18.290Z,99908.59
2022-09-28T17:18:45.908Z,99903.22
2022-09-28T17:21:15.780Z,99901.97
2022-09-28T17:23:46.367Z,99908.59
2022-09-28T17:26:23.200Z,99910.34
2022-09-28T17:28:49.677Z,99906.72
2022-09-28T17:31:16.546Z,99911.56
2022-09-28T17:33:43.491Z,99916.75
2022-09-28T17:36:13.235Z,99918.97
2022-09-28T17:38:39.971Z,99917.53
2022-09-28T17:41:06.359Z,99914.34
2022-09-28T17:43:32.749Z,99916.94
2022-09-28T17:45:59.409Z,99911.44
2022-09-28T17:48:25.781Z,99918.28
2022-09-28T17:50:52.157Z,99922.50
2022-09-28T17:53:18.621Z,99930.66
2022-09-28T17:55:44.986Z,99926.00
2022-09-28T17:58:18.552Z,99924.03
2022-09-28T18:00:51.493Z,99915.50
2022-09-28T18:03:20.275Z,99931.50
2022-09-28T18:05:58.201Z,99932.13
2022-09-28T18:08:24.688Z,99916.50
2022-09-28T18:10:51.159Z,99924.66
2022-09-28T18:13:17.612Z,99926.50
2022-09-28T18:15:44.246Z,99924.69
2022-09-28T18:18:12.497Z,99918.66
2022-09-28T18:20:39.420Z,99924.03
2022-09-28T18:23:05.786Z,99927.44
2022-09-28T18:25:32.154Z,99927.06
2022-09-28T18:27:59.941Z,99926.41
2022-09-28T18:30:27.510Z,99928.59
2022-09-28T18:32:54.144Z,99925.44
2022-09-28T18:35:23.018Z,99922.78
2022-09-28T18:37:50.235Z,99924.25
2022-09-28T18:40:16.643Z,99923.84
2022-09-28T18:42:43.093Z,99915.50
2022-09-28T18:45:14.199Z,99926.69
2022-09-28T18:47:40.649Z,99922.59
2022-09-28T18:50:07.679Z,99921.88
2022-09-28T18:52:38.431Z,99930.63
2022-09-28T18:55:05.992Z,99920.00
2022-09-28T18:57:35.269Z,99919.03
2022-09-28T19:00:03.567Z,99922.78
2022-09-28T19:02:30.189Z,99932.25
2022-09-28T19:04:56.673Z,99927.69
2022-09-28T19:07:23.212Z,99916.31
2022-09-28T19:09:50.074Z,99913.53
2022-09-28T19:12:16.983Z,99921.31
2022-09-28T19:14:43.463Z,99919.34
2022-09-28T19:17:10.157Z,99928.56
2022-09-28T19:19:36.521Z,99926.25
2022-09-28T19:22:02.969Z,99920.69
2022-09-28T19:24:29.376Z,99921.88
2022-09-28T19:26:56.520Z,99923.59
2022-09-28T19:29:22.945Z,99939.38
2022-09-28T19:31:49.789Z,99934.84
2022-09-28T19:34:16.365Z,99919.22
2022-09-28T19:36:43.128Z,99926.25
2022-09-28T19:39:13.763Z,99933.84
2022-09-28T19:41:44.700Z,99934.34
2022-09-28T19:44:24.514Z,99937.31
2022-09-28T19:46:56.172Z,99937.66
2022-09-28T19:49:24.031Z,99937.44
2022-09-28T19:52:11.696Z,99937.00
2022-09-28T19:54:38.507Z,99944.81
2022-09-28T19:57:07.604Z,99949.66
2022-09-28T19:59:35.452Z,99949.22
2022-09-28T20:02:02.072Z,99955.31
2022-09-28T20:04:28.848Z,99961.97
2022-09-28T20:06:55.230Z,99958.31
2022-09-28T20:09:21.574Z,99953.56
2022-09-28T20:11:48.501Z,99967.41
2022-09-28T20:14:18.596Z,99976.63
2022-09-28T20:16:46.183Z,99968.06
2022-09-28T20:19:12.963Z,99972.25
2022-09-28T20:21:39.326Z,99966.53
2022-09-28T20:24:05.856Z,99975.09
2022-09-28T20:26:37.569Z,99966.78
2022-09-28T20:29:05.109Z,99974.03
2022-09-28T20:31:31.549Z,99972.25
2022-09-28T20:33:57.997Z,99970.81
2022-09-28T20:36:25.009Z,99968.41
2022-09-28T20:38:53.307Z,99981.09
2022-09-28T20:41:22.065Z,99977.59
2022-09-28T20:43:53.140Z,99982.63
2022-09-28T20:46:21.180Z,99987.88
2022-09-28T20:48:49.929Z,99982.41
2022-09-28T20:51:18.574Z,99985.56
2022-09-28T20:53:52.466Z,99984.47
2022-09-28T20:56:23.866Z,99984.66
2022-09-28T20:58:51.062Z,99976.44
2022-09-28T21:01:29.837Z,99989.72
2022-09-28T21:04:01.562Z,99983.91
2022-09-28T21:06:30.236Z,99983.00
2022-09-28T21:08:56.996Z,99986.84
2022-09-28T21:11:25.330Z,99985.75
2022-09-28T21:13:52.886Z,99996.13
2022-09-28T21:16:19.257Z,99993.16
2022-09-28T21:18:45.748Z,99988.94
2022-09-28T21:21:14.383Z,99996.38
2022-09-28T21:23:40.916Z,99990.81
2022-09-28T21:26:10.217Z,100009.19
2022-09-28T21:28:36.930Z,99999.00
2022-09-28T21:31:05.628Z,100006.97
2022-09-28T21:33:32.317Z,100007.34
2022-09-28T21:36:03.766Z,100003.97
2022-09-28T21:38:30.381Z,100003.91
2022-09-28T21:40:57.956Z,100000.50
2022-09-28T21:43:25.762Z,100012.94
2022-09-28T21:45:53.076Z,100010.84
2022-09-28T21:48:20.780Z,100013.06
2022-09-28T21:51:05.024Z,100019.25
2022-09-28T21:53:33.960Z,100017.78
2022-09-28T21:56:01.365Z,100017.47
2022-09-28T21:58:30.129Z,100020.59
2022-09-28T22:01:08.154Z,100029.47
2022-09-28T22:03:36.158Z,100022.88
2022-09-28T22:06:03.927Z,100032.94
2022-09-28T22:08:30.300Z,100031.66
2022-09-28T22:11:31.117Z,100025.41
2022-09-28T22:13:59.178Z,100028.09
2022-09-28T22:16:28.108Z,100033.78
2022-09-28T22:18:54.827Z,100016.72
2022-09-28T22:21:26.709Z,100019.56
2022-09-28T22:23:53.405Z,100025.34
2022-09-28T22:26:23.374Z,100020.31
2022-09-28T22:28:50.899Z,100025.00
2022-09-28T22:31:18.738Z,100024.94
2022-09-28T22:33:45.124Z,100023.59
2022-09-28T22:36:11.771Z,100023.13
2022-09-28T22:38:38.131Z,100024.47
2022-09-28T22:41:04.504Z,100032.78
2022-09-28T22:43:31.040Z,100032.31
2022-09-28T22:46:18.740Z,100027.38
2022-09-28T22:48:49.787Z,100037.88
2022-09-28T22:51:16.827Z,100033.66
2022-09-28T22:53:43.319Z,100033.66
2022-09-28T22:56:12.598Z,100038.22
2022-09-28T22:58:42.835Z,100035.38
2022-09-28T23:01:17.781Z,100041.47
2022-09-28T23:03:44.788Z,100031.13
2022-09-28T23:06:12.831Z,100041.16
2022-09-28T23:08:39.473Z,100043.44
2022-09-28T23:11:06.314Z,100046.66
2022-09-28T23:13:32.911Z,100040.53
2022-09-28T23:16:04.897Z,100051.56
2022-09-28T23:18:33.667Z,100045.41
2022-09-28T23:21:02.220Z,100043.28
2022-09-28T23:23:28.898Z,100035.88
2022-09-28T23:25:55.864Z,100040.88
2022-09-28T23:28:23.678Z,100038.66
2022-09-28T23:30:50.115Z,100043.84
2022-09-28T23:33:17.959Z,100043.03
2022-09-28T23:35:44.856Z,100048.84
2022-09-28T23:38:13.406Z,100052.72
2022-09-28T23:40:40.907Z,100043.72
2022-09-28T23:43:07.961Z,100043.72
2022-09-28T23:45:34.395Z,100040.81
2022-09-28T23:48:00.924Z,100057.28
2022-09-28T23:50:27.367Z,100051.47
2022-09-28T23:52:53.836Z,100032.91
2022-09-28T23:55:20.298Z,100041.59
2022-09-28T23:57:46.703Z,100038.75
